Barb, Ohio
Current Conditions -  °F | °C
As of 8:54 AM on Wednesday 26 Nov 2014 (Local Time) from KAKR Reporting Station
Scattered Clouds Scattered Clouds  
Wind Chill: 27°   Ceiling: Unl
Heat Index: 33°   Visibility: 10mi
Dew Point: 24°   Wind: 7mph
Humidity: 70%   Direction: 40°NE
Pressure: 30.09"   Gusts: NA
Location:  41.0203°N, 81.628°W
Report Text: KAKR 261354Z AUTO 04006KT 10SM SCT031 01/M04 A3009 RMK AO2 SLP198 T00061044
Loading
Personal Weather Stations






























Interactive Weather Map New forecast layout! Learn more

10-Day Weather Forecast

Advertisements
Track Severe Weather on mobile